Time;durP1;ratioP1;P1;durP2;ratioP2;P2;SDS_P1;SDS_P2;PMS_P1;PMS_P2;Temp;Humidity;BMP_temperature;BMP_pressure;BME280_temperature;BME280_humidity;BME280_pressure;Samples;Min_cycle;Max_cycle;Signal;HPM_P1;HPM_P2
2023/07/28 00:01:43;;;;;;;12.77;4.05;;;;;;;;;;4998040;28;20182;-69
2023/07/28 00:04:10;;;;;;;8.10;3.28;;;;;;;;;;4998956;28;20244;-69
2023/07/28 00:06:35;;;;;;;10.02;3.90;;;;;;;;;;4994123;28;20199;-69
2023/07/28 00:09:00;;;;;;;7.60;3.90;;;;;;;;;;5005097;22;20231;-72
2023/07/28 00:11:26;;;;;;;10.55;4.57;;;;;;;;;;4966024;28;20195;-73
2023/07/28 00:13:51;;;;;;;14.02;4.43;;;;;;;;;;4986360;28;20231;-73
2023/07/28 00:16:16;;;;;;;10.05;3.83;;;;;;;;;;4988487;28;21117;-73
2023/07/28 00:18:41;;;;;;;10.18;4.32;;;;;;;;;;4985269;28;20183;-73
2023/07/28 00:21:07;;;;;;;7.10;3.72;;;;;;;;;;4959830;28;20285;-75
2023/07/28 00:23:32;;;;;;;9.77;3.85;;;;;;;;;;4977443;28;20195;-73
2023/07/28 00:25:57;;;;;;;6.38;3.92;;;;;;;;;;4978581;28;20230;-73
2023/07/28 00:28:22;;;;;;;8.75;4.38;;;;;;;;;;4960192;28;20191;-73
2023/07/28 00:30:51;;;;;;;8.85;4.05;;;;;;;;;;4953131;28;21010;-74
2023/07/28 00:33:16;;;;;;;7.53;4.18;;;;;;;;;;4956191;28;20295;-74
2023/07/28 00:35:41;;;;;;;8.02;4.55;;;;;;;;;;4964490;28;20191;-75
2023/07/28 00:38:07;;;;;;;12.07;3.90;;;;;;;;;;4973582;28;20990;-73
2023/07/28 00:40:32;;;;;;;9.95;3.53;;;;;;;;;;4959598;28;20207;-73
2023/07/28 00:42:57;;;;;;;8.38;4.47;;;;;;;;;;4976781;28;20187;-74
2023/07/28 00:45:22;;;;;;;8.50;4.57;;;;;;;;;;4960137;28;20693;-74
2023/07/28 00:47:48;;;;;;;8.88;3.95;;;;;;;;;;4976645;28;20196;-74
2023/07/28 00:50:13;;;;;;;10.82;3.95;;;;;;;;;;4978280;28;21525;-74
2023/07/28 00:52:38;;;;;;;9.85;4.15;;;;;;;;;;4977758;28;20191;-73
2023/07/28 00:55:05;;;;;;;9.88;4.15;;;;;;;;;;4975631;28;20223;-73
2023/07/28 00:57:30;;;;;;;10.10;5.18;;;;;;;;;;4957595;28;20282;-75
2023/07/28 00:59:56;;;;;;;12.90;4.80;;;;;;;;;;4977664;28;20975;-73
2023/07/28 01:02:21;;;;;;;12.38;5.38;;;;;;;;;;4976540;28;20650;-74
2023/07/28 01:04:47;;;;;;;16.15;5.68;;;;;;;;;;4971226;28;20865;-73
2023/07/28 01:07:36;;;;;;;14.55;5.78;;;;;;;;;;4977287;28;20204;-73
2023/07/28 01:10:01;;;;;;;16.38;5.70;;;;;;;;;;4976126;28;20583;-73
2023/07/28 01:12:26;;;;;;;13.30;6.47;;;;;;;;;;4973437;28;20274;-74
2023/07/28 01:14:51;;;;;;;16.63;6.30;;;;;;;;;;4976776;28;20294;-74
2023/07/28 01:17:18;;;;;;;18.25;6.78;;;;;;;;;;4959380;28;20211;-73
2023/07/28 01:19:43;;;;;;;11.25;6.55;;;;;;;;;;4974366;28;20290;-74
2023/07/28 01:22:08;;;;;;;10.85;5.95;;;;;;;;;;4954831;28;20233;-74
2023/07/28 01:24:56;;;;;;;15.87;7.57;;;;;;;;;;4973608;28;20271;-74
2023/07/28 01:27:21;;;;;;;11.60;6.22;;;;;;;;;;4974545;28;20487;-74
2023/07/28 01:29:47;;;;;;;13.35;7.05;;;;;;;;;;4976563;28;20211;-74
2023/07/28 01:32:13;;;;;;;15.10;7.82;;;;;;;;;;4979363;28;20753;-74
2023/07/28 01:34:38;;;;;;;16.88;8.57;;;;;;;;;;4979386;28;20231;-74
2023/07/28 01:37:03;;;;;;;16.73;8.40;;;;;;;;;;4962760;28;20190;-74
2023/07/28 01:39:28;;;;;;;17.23;7.85;;;;;;;;;;4977156;28;20744;-74
2023/07/28 01:41:54;;;;;;;17.48;8.32;;;;;;;;;;4965336;28;20184;-75
2023/07/28 01:44:19;;;;;;;18.13;8.13;;;;;;;;;;4979405;28;20222;-74
2023/07/28 01:46:44;;;;;;;15.45;8.57;;;;;;;;;;4981436;28;20665;-73
2023/07/28 01:49:09;;;;;;;16.90;6.82;;;;;;;;;;4963477;28;20239;-74
2023/07/28 01:51:34;;;;;;;21.95;8.75;;;;;;;;;;4962580;28;20242;-73
2023/07/28 01:54:00;;;;;;;17.60;7.97;;;;;;;;;;4980892;28;20200;-73
2023/07/28 01:56:25;;;;;;;18.67;7.90;;;;;;;;;;4961637;28;20191;-74
2023/07/28 01:58:50;;;;;;;14.45;7.55;;;;;;;;;;4976767;28;20432;-75
2023/07/28 02:01:15;;;;;;;15.60;7.53;;;;;;;;;;4979805;28;20741;-73
2023/07/28 02:03:41;;;;;;;20.40;8.13;;;;;;;;;;4981982;28;20196;-73
2023/07/28 02:06:06;;;;;;;21.25;8.00;;;;;;;;;;4980102;28;20188;-73
2023/07/28 02:08:31;;;;;;;22.55;8.88;;;;;;;;;;4981917;28;20653;-73
2023/07/28 02:10:56;;;;;;;17.13;8.05;;;;;;;;;;4977383;28;20215;-73
2023/07/28 02:13:22;;;;;;;19.95;8.85;;;;;;;;;;4979313;28;20219;-73
2023/07/28 02:15:47;;;;;;;15.88;9.05;;;;;;;;;;4977468;28;20180;-74
2023/07/28 02:18:12;;;;;;;24.05;8.75;;;;;;;;;;4978695;28;20185;-72
2023/07/28 02:20:38;;;;;;;18.33;8.93;;;;;;;;;;4977643;28;20211;-75
2023/07/28 02:23:04;;;;;;;19.40;9.13;;;;;;;;;;4980459;28;20723;-75
2023/07/28 02:25:29;;;;;;;17.13;8.70;;;;;;;;;;4959832;28;20191;-73
2023/07/28 02:27:54;;;;;;;24.90;9.57;;;;;;;;;;4978262;28;20183;-73
2023/07/28 02:30:20;;;;;;;22.05;9.07;;;;;;;;;;4977310;28;20646;-73
2023/07/28 02:32:45;;;;;;;23.05;10.32;;;;;;;;;;4973796;28;20187;-73
2023/07/28 02:35:10;;;;;;;16.33;7.57;;;;;;;;;;4962729;28;20242;-73
2023/07/28 02:37:36;;;;;;;21.02;8.50;;;;;;;;;;4977490;28;20206;-73
2023/07/28 02:40:01;;;;;;;20.90;10.30;;;;;;;;;;4962232;28;21042;-73
2023/07/28 02:42:26;;;;;;;18.02;9.30;;;;;;;;;;4975973;28;20265;-74
2023/07/28 02:44:51;;;;;;;17.13;9.23;;;;;;;;;;4977138;28;20367;-73
2023/07/28 02:47:17;;;;;;;20.80;9.55;;;;;;;;;;4977856;28;20184;-73
2023/07/28 02:49:43;;;;;;;19.63;9.93;;;;;;;;;;4978565;28;20212;-72
2023/07/28 02:52:08;;;;;;;21.02;9.43;;;;;;;;;;4959054;28;20195;-73
2023/07/28 02:54:33;;;;;;;22.48;10.02;;;;;;;;;;4978428;28;20231;-72
2023/07/28 02:56:58;;;;;;;25.60;10.40;;;;;;;;;;4976129;28;20180;-73
2023/07/28 02:59:24;;;;;;;21.90;11.15;;;;;;;;;;4968685;28;20237;-73
2023/07/28 03:01:51;;;;;;;22.77;9.80;;;;;;;;;;4975511;28;20176;-72
2023/07/28 03:04:17;;;;;;;24.55;10.90;;;;;;;;;;4978142;28;20199;-72
2023/07/28 03:06:42;;;;;;;18.83;9.95;;;;;;;;;;4977879;28;20191;-74
2023/07/28 03:09:07;;;;;;;23.63;11.32;;;;;;;;;;4977551;28;20225;-73
2023/07/28 03:11:32;;;;;;;23.42;11.13;;;;;;;;;;4977955;28;20259;-73
2023/07/28 03:13:57;;;;;;;23.85;10.70;;;;;;;;;;4977102;28;20309;-73
2023/07/28 03:16:23;;;;;;;25.95;11.52;;;;;;;;;;4978641;28;20191;-73
2023/07/28 03:18:48;;;;;;;21.23;10.65;;;;;;;;;;4977715;28;20680;-73
2023/07/28 03:21:14;;;;;;;26.75;12.45;;;;;;;;;;4975442;28;20183;-73
2023/07/28 03:23:39;;;;;;;26.52;11.10;;;;;;;;;;4978063;28;20191;-73
2023/07/28 03:26:05;;;;;;;21.17;11.63;;;;;;;;;;4962661;28;20191;-74
2023/07/28 03:28:30;;;;;;;23.13;11.35;;;;;;;;;;4962988;28;20281;-73
2023/07/28 03:30:55;;;;;;;22.33;11.40;;;;;;;;;;4963042;28;20234;-73
2023/07/28 03:33:20;;;;;;;29.65;13.60;;;;;;;;;;4978085;28;20214;-73
2023/07/28 03:35:45;;;;;;;25.52;10.32;;;;;;;;;;4978867;28;20190;-74
2023/07/28 03:38:11;;;;;;;26.00;10.85;;;;;;;;;;4976554;28;20195;-74
2023/07/28 03:40:36;;;;;;;33.92;13.23;;;;;;;;;;4980217;28;20211;-73
2023/07/28 03:43:01;;;;;;;20.45;10.82;;;;;;;;;;4977937;28;20242;-74
2023/07/28 03:45:27;;;;;;;28.25;11.13;;;;;;;;;;4979112;28;20188;-73
2023/07/28 03:47:52;;;;;;;27.77;12.07;;;;;;;;;;4978463;28;20184;-74
2023/07/28 03:50:17;;;;;;;32.55;11.18;;;;;;;;;;4973143;28;20215;-73
2023/07/28 03:52:42;;;;;;;28.25;11.65;;;;;;;;;;4976218;28;20572;-73
2023/07/28 03:55:08;;;;;;;25.42;11.57;;;;;;;;;;4976834;28;20219;-72
2023/07/28 03:57:33;;;;;;;30.45;11.90;;;;;;;;;;4958864;28;20183;-73
2023/07/28 03:59:58;;;;;;;29.20;12.05;;;;;;;;;;4969607;28;20214;-75
2023/07/28 04:02:23;;;;;;;30.98;12.05;;;;;;;;;;4960067;28;20594;-72
2023/07/28 04:04:55;;;;;;;27.60;11.50;;;;;;;;;;4960060;28;20194;-73
2023/07/28 04:07:21;;;;;;;27.05;11.77;;;;;;;;;;4959533;28;20226;-72
2023/07/28 04:09:46;;;;;;;37.83;12.07;;;;;;;;;;4959362;28;20314;-73
2023/07/28 04:12:11;;;;;;;29.70;11.32;;;;;;;;;;4974815;28;20192;-73
2023/07/28 04:14:36;;;;;;;20.25;10.65;;;;;;;;;;4976837;28;20718;-72
2023/07/28 04:17:02;;;;;;;24.90;10.80;;;;;;;;;;4977329;28;20183;-72
2023/07/28 04:19:28;;;;;;;23.25;10.73;;;;;;;;;;4958524;28;20539;-72
2023/07/28 04:21:54;;;;;;;37.10;10.73;;;;;;;;;;4974899;28;20731;-73
2023/07/28 04:24:19;;;;;;;23.05;10.35;;;;;;;;;;4959017;28;20211;-72
2023/07/28 04:26:48;;;;;;;26.42;12.68;;;;;;;;;;4977489;28;20187;-73
2023/07/28 04:29:13;;;;;;;33.17;11.15;;;;;;;;;;4974496;28;20633;-73
2023/07/28 04:31:39;;;;;;;28.83;11.02;;;;;;;;;;4976709;28;20245;-73
2023/07/28 04:34:04;;;;;;;36.53;11.60;;;;;;;;;;4974791;28;20238;-73
2023/07/28 04:36:29;;;;;;;30.08;12.45;;;;;;;;;;4976347;28;20207;-72
2023/07/28 04:38:54;;;;;;;22.95;11.32;;;;;;;;;;4973192;28;20801;-72
2023/07/28 04:41:20;;;;;;;36.90;11.85;;;;;;;;;;4959164;28;20556;-72
2023/07/28 04:43:46;;;;;;;26.40;10.95;;;;;;;;;;4974997;28;20183;-73
2023/07/28 04:46:11;;;;;;;30.60;12.38;;;;;;;;;;4976579;28;20191;-72
2023/07/28 04:48:36;;;;;;;27.38;12.38;;;;;;;;;;4975906;28;20293;-73
2023/07/28 04:51:01;;;;;;;20.60;10.88;;;;;;;;;;4954497;28;20187;-73
2023/07/28 04:53:27;;;;;;;26.23;11.93;;;;;;;;;;4975597;28;20212;-73
2023/07/28 04:55:52;;;;;;;29.17;12.10;;;;;;;;;;4959448;28;20225;-74
2023/07/28 04:58:17;;;;;;;25.55;10.35;;;;;;;;;;4975197;28;20198;-73
2023/07/28 05:00:42;;;;;;;28.73;11.48;;;;;;;;;;4969854;28;20223;-72
2023/07/28 05:03:07;;;;;;;26.27;11.63;;;;;;;;;;4958237;28;20176;-73
2023/07/28 05:05:33;;;;;;;24.35;10.65;;;;;;;;;;4975493;28;20180;-75
2023/07/28 05:07:58;;;;;;;34.67;12.00;;;;;;;;;;4976542;28;20176;-73
2023/07/28 05:10:23;;;;;;;26.27;11.73;;;;;;;;;;4980229;28;20967;-72
2023/07/28 05:12:48;;;;;;;24.42;11.07;;;;;;;;;;4978858;28;20741;-72
2023/07/28 05:15:14;;;;;;;23.75;11.05;;;;;;;;;;4977070;28;20282;-72
2023/07/28 05:17:40;;;;;;;30.70;12.15;;;;;;;;;;4978693;28;20189;-74
2023/07/28 05:20:05;;;;;;;28.50;11.93;;;;;;;;;;4960226;28;20238;-72
2023/07/28 05:22:30;;;;;;;33.08;11.48;;;;;;;;;;4978865;28;20266;-73
2023/07/28 05:24:56;;;;;;;29.10;13.38;;;;;;;;;;4979071;28;20242;-74
2023/07/28 05:27:21;;;;;;;30.63;11.77;;;;;;;;;;4975196;28;20242;-72
2023/07/28 05:29:46;;;;;;;30.98;12.95;;;;;;;;;;4979902;28;20212;-72
2023/07/28 05:32:11;;;;;;;28.40;11.82;;;;;;;;;;4979088;28;20191;-72
2023/07/28 05:34:36;;;;;;;28.50;11.32;;;;;;;;;;4977795;28;20298;-71
2023/07/28 05:37:02;;;;;;;28.30;11.60;;;;;;;;;;4961926;28;20171;-70
2023/07/28 05:39:27;;;;;;;28.95;11.02;;;;;;;;;;4976461;28;20214;-71
2023/07/28 05:41:52;;;;;;;30.52;11.13;;;;;;;;;;4979049;28;20209;-71
2023/07/28 05:44:18;;;;;;;25.52;10.85;;;;;;;;;;4980307;28;20253;-71
2023/07/28 05:46:44;;;;;;;26.27;11.45;;;;;;;;;;4979965;28;20553;-71
2023/07/28 05:49:09;;;;;;;29.98;10.85;;;;;;;;;;4977709;28;20253;-71
2023/07/28 05:51:35;;;;;;;30.40;11.70;;;;;;;;;;4976656;28;20601;-70
2023/07/28 05:54:00;;;;;;;24.83;11.32;;;;;;;;;;4961713;28;20215;-71
2023/07/28 05:56:25;;;;;;;24.27;11.25;;;;;;;;;;4976921;28;21411;-70
2023/07/28 05:58:50;;;;;;;25.58;12.05;;;;;;;;;;4977880;28;20768;-71
2023/07/28 06:01:16;;;;;;;20.48;10.25;;;;;;;;;;4957194;28;20191;-71
2023/07/28 06:03:41;;;;;;;23.38;10.82;;;;;;;;;;4975806;28;20231;-71
2023/07/28 06:06:07;;;;;;;32.45;11.60;;;;;;;;;;4976021;28;20230;-71
2023/07/28 06:08:32;;;;;;;27.55;10.55;;;;;;;;;;4978006;28;20945;-71
2023/07/28 06:10:57;;;;;;;25.33;11.10;;;;;;;;;;4998247;22;20242;-70
2023/07/28 06:13:22;;;;;;;22.80;10.35;;;;;;;;;;4988218;28;20568;-69
2023/07/28 06:15:48;;;;;;;22.40;11.50;;;;;;;;;;4987817;28;20187;-70
2023/07/28 06:18:13;;;;;;;27.30;11.00;;;;;;;;;;4971073;28;20184;-70
2023/07/28 06:20:41;;;;;;;35.03;11.35;;;;;;;;;;4984542;28;20286;-69
2023/07/28 06:23:06;;;;;;;22.17;10.15;;;;;;;;;;4984345;28;20183;-68
2023/07/28 06:25:32;;;;;;;22.92;10.85;;;;;;;;;;4988768;28;20248;-69
2023/07/28 06:27:57;;;;;;;19.90;11.75;;;;;;;;;;4988222;28;20183;-69
2023/07/28 06:30:22;;;;;;;17.80;10.23;;;;;;;;;;4987814;28;20257;-70
2023/07/28 06:32:47;;;;;;;20.83;10.52;;;;;;;;;;4985839;28;20233;-69
2023/07/28 06:35:13;;;;;;;18.42;9.65;;;;;;;;;;4988651;28;20215;-69
2023/07/28 06:37:38;;;;;;;25.70;10.77;;;;;;;;;;4988142;28;20192;-69
2023/07/28 06:40:05;;;;;;;20.75;10.10;;;;;;;;;;4987918;28;20195;-70
2023/07/28 06:42:30;;;;;;;20.67;9.35;;;;;;;;;;4989721;28;20318;-69
2023/07/28 06:44:56;;;;;;;31.25;9.35;;;;;;;;;;4988726;28;20195;-69
2023/07/28 06:47:21;;;;;;;19.63;8.50;;;;;;;;;;4989523;28;20653;-69
2023/07/28 06:49:47;;;;;;;19.33;7.90;;;;;;;;;;4971183;28;20286;-69
2023/07/28 06:52:12;;;;;;;13.77;8.55;;;;;;;;;;4968595;28;20306;-69
2023/07/28 06:54:38;;;;;;;18.88;8.52;;;;;;;;;;4989137;28;20717;-70
2023/07/28 06:57:04;;;;;;;23.88;8.43;;;;;;;;;;4987322;28;20180;-68
2023/07/28 06:59:29;;;;;;;18.90;7.38;;;;;;;;;;4986356;28;20298;-69
2023/07/28 07:01:55;;;;;;;17.70;8.63;;;;;;;;;;4965572;28;21805;-70
2023/07/28 07:04:20;;;;;;;13.32;6.95;;;;;;;;;;4970030;28;20187;-70
2023/07/28 07:06:45;;;;;;;12.90;7.60;;;;;;;;;;4988767;28;20187;-70
2023/07/28 07:09:14;;;;;;;13.18;7.05;;;;;;;;;;4987748;28;20187;-70
2023/07/28 07:11:39;;;;;;;10.95;7.35;;;;;;;;;;4989322;28;20195;-69
2023/07/28 07:14:05;;;;;;;13.88;6.80;;;;;;;;;;4988190;28;20741;-69
2023/07/28 07:16:30;;;;;;;15.02;6.75;;;;;;;;;;4970266;28;20793;-69
2023/07/28 07:18:55;;;;;;;14.35;7.07;;;;;;;;;;4971568;28;21084;-70
2023/07/28 07:21:20;;;;;;;13.53;6.43;;;;;;;;;;4989427;28;20208;-69
2023/07/28 07:23:45;;;;;;;16.15;7.25;;;;;;;;;;4971748;28;20423;-68
2023/07/28 07:26:11;;;;;;;11.18;6.07;;;;;;;;;;4987853;28;20721;-69
2023/07/28 07:28:36;;;;;;;11.60;6.35;;;;;;;;;;4966907;28;20187;-69
2023/07/28 07:31:01;;;;;;;12.02;6.13;;;;;;;;;;4986652;28;20253;-69
2023/07/28 07:33:27;;;;;;;15.15;5.63;;;;;;;;;;4987801;28;20179;-69
2023/07/28 07:35:53;;;;;;;12.07;5.95;;;;;;;;;;4987717;28;20184;-69
2023/07/28 07:38:18;;;;;;;12.10;5.72;;;;;;;;;;4988000;28;20258;-68
2023/07/28 07:40:46;;;;;;;13.02;5.57;;;;;;;;;;4989464;28;20225;-68
2023/07/28 07:43:11;;;;;;;10.48;6.25;;;;;;;;;;4985380;28;20187;-68
2023/07/28 07:45:36;;;;;;;10.98;5.20;;;;;;;;;;4970895;28;20226;-68
2023/07/28 07:48:03;;;;;;;18.02;5.32;;;;;;;;;;4986890;28;20193;-68
2023/07/28 07:50:29;;;;;;;8.05;4.60;;;;;;;;;;4970893;28;20265;-68
2023/07/28 07:52:54;;;;;;;7.82;5.13;;;;;;;;;;4987370;28;20579;-68
2023/07/28 07:55:19;;;;;;;10.07;4.63;;;;;;;;;;4987462;28;20226;-70
2023/07/28 07:57:44;;;;;;;9.13;5.35;;;;;;;;;;4967750;28;20425;-68
2023/07/28 08:00:10;;;;;;;12.00;5.18;;;;;;;;;;4984846;28;20202;-69
2023/07/28 08:02:36;;;;;;;10.60;4.70;;;;;;;;;;4984234;28;20182;-69
2023/07/28 08:05:01;;;;;;;12.18;5.05;;;;;;;;;;4988076;28;20237;-68
2023/07/28 08:07:26;;;;;;;13.95;4.43;;;;;;;;;;4989256;28;20187;-68
2023/07/28 08:09:51;;;;;;;15.30;5.18;;;;;;;;;;4970872;28;20223;-68
2023/07/28 08:12:17;;;;;;;11.23;4.65;;;;;;;;;;4988622;28;20191;-68
2023/07/28 08:14:42;;;;;;;11.40;4.30;;;;;;;;;;4986408;28;20207;-68
2023/07/28 08:17:08;;;;;;;10.60;5.18;;;;;;;;;;4988688;28;20875;-69
2023/07/28 08:19:33;;;;;;;9.77;5.20;;;;;;;;;;4970147;28;20794;-69
2023/07/28 08:21:59;;;;;;;12.48;4.80;;;;;;;;;;4988259;28;20230;-69
2023/07/28 08:24:24;;;;;;;9.40;5.53;;;;;;;;;;4987938;28;20180;-69
2023/07/28 08:26:49;;;;;;;8.90;5.18;;;;;;;;;;4988877;28;20804;-69
2023/07/28 08:29:14;;;;;;;9.27;4.13;;;;;;;;;;4987581;28;20607;-69
2023/07/28 08:31:40;;;;;;;8.68;4.80;;;;;;;;;;4970112;28;20441;-69
2023/07/28 08:34:05;;;;;;;11.80;4.25;;;;;;;;;;4988075;28;20210;-69
2023/07/28 08:36:30;;;;;;;8.20;4.07;;;;;;;;;;4988583;28;20217;-69
2023/07/28 08:38:55;;;;;;;10.40;4.00;;;;;;;;;;4986993;28;21160;-69
2023/07/28 08:41:21;;;;;;;12.23;4.35;;;;;;;;;;4986200;28;20972;-69
2023/07/28 08:43:46;;;;;;;9.15;3.95;;;;;;;;;;4985949;28;20583;-69
2023/07/28 08:46:11;;;;;;;7.88;4.82;;;;;;;;;;4992456;28;20189;-69
2023/07/28 08:48:37;;;;;;;10.30;4.45;;;;;;;;;;4992447;28;20205;-69
2023/07/28 08:51:04;;;;;;;13.27;4.20;;;;;;;;;;4992328;28;20232;-68
2023/07/28 08:53:29;;;;;;;6.45;3.17;;;;;;;;;;4992738;28;20250;-68
2023/07/28 08:55:54;;;;;;;4.53;2.93;;;;;;;;;;4992229;28;20326;-68
2023/07/28 08:58:20;;;;;;;8.40;3.95;;;;;;;;;;4973384;28;20435;-68
2023/07/28 09:00:49;;;;;;;6.78;3.30;;;;;;;;;;4991030;28;20213;-69
2023/07/28 09:03:16;;;;;;;6.07;3.05;;;;;;;;;;4990627;28;20191;-69
2023/07/28 09:05:41;;;;;;;11.02;3.00;;;;;;;;;;4991198;28;20186;-68
2023/07/28 09:08:07;;;;;;;4.82;3.28;;;;;;;;;;4991136;28;20182;-68
2023/07/28 09:10:45;;;;;;;9.80;4.50;;;;;;;;;;4973102;28;20225;-68
2023/07/28 09:13:12;;;;;;;5.82;3.08;;;;;;;;;;4972713;28;20628;-69
2023/07/28 09:15:37;;;;;;;6.65;3.25;;;;;;;;;;4972219;28;20309;-69
2023/07/28 09:18:02;;;;;;;6.45;3.35;;;;;;;;;;4953802;28;20190;-69
2023/07/28 09:20:33;;;;;;;7.65;3.92;;;;;;;;;;4990939;28;20689;-69
2023/07/28 09:22:59;;;;;;;5.50;3.22;;;;;;;;;;4973076;28;20237;-69
2023/07/28 09:25:24;;;;;;;10.57;4.05;;;;;;;;;;4974364;28;20196;-69
2023/07/28 09:27:52;;;;;;;8.85;4.40;;;;;;;;;;4973191;28;20194;-69
2023/07/28 09:30:18;;;;;;;9.77;3.67;;;;;;;;;;4990832;28;20603;-68
2023/07/28 09:32:47;;;;;;;8.68;3.45;;;;;;;;;;4972056;28;20188;-68
2023/07/28 09:35:12;;;;;;;5.18;3.08;;;;;;;;;;4973466;28;20211;-69
2023/07/28 09:37:39;;;;;;;7.25;2.97;;;;;;;;;;4972918;28;20183;-69
2023/07/28 09:40:06;;;;;;;6.30;3.10;;;;;;;;;;4989854;28;20195;-69
2023/07/28 09:42:31;;;;;;;4.07;3.05;;;;;;;;;;4973229;28;20192;-69
2023/07/28 09:44:57;;;;;;;7.13;3.17;;;;;;;;;;4990198;28;20273;-68
2023/07/28 09:47:23;;;;;;;5.10;2.70;;;;;;;;;;4971575;28;20234;-67
2023/07/28 09:49:48;;;;;;;6.85;3.28;;;;;;;;;;4973205;28;20215;-67
2023/07/28 09:52:15;;;;;;;5.45;2.80;;;;;;;;;;4991461;28;20206;-67
2023/07/28 09:54:41;;;;;;;6.43;2.92;;;;;;;;;;4990838;28;20219;-68
2023/07/28 09:57:13;;;;;;;5.72;3.63;;;;;;;;;;4990964;28;20657;-67
2023/07/28 09:59:39;;;;;;;7.07;4.07;;;;;;;;;;4990609;28;20250;-68
2023/07/28 10:02:05;;;;;;;12.55;4.70;;;;;;;;;;4972748;28;20274;-68
2023/07/28 10:04:30;;;;;;;7.35;4.22;;;;;;;;;;4990521;28;20749;-68
2023/07/28 10:06:56;;;;;;;6.13;3.65;;;;;;;;;;4991698;28;20195;-68
2023/07/28 10:09:25;;;;;;;5.25;4.18;;;;;;;;;;4988524;28;20253;-68
2023/07/28 10:11:50;;;;;;;6.18;4.03;;;;;;;;;;4990248;28;20238;-68
2023/07/28 10:14:30;;;;;;;11.57;4.55;;;;;;;;;;4990830;28;20732;-68
2023/07/28 10:16:56;;;;;;;5.57;3.58;;;;;;;;;;4990470;28;20619;-68
2023/07/28 10:19:21;;;;;;;6.70;4.00;;;;;;;;;;4973434;28;20352;-68
2023/07/28 10:21:46;;;;;;;3.20;2.67;;;;;;;;;;4972836;28;20183;-68
2023/07/28 10:24:12;;;;;;;7.68;3.10;;;;;;;;;;4973294;28;20251;-68
2023/07/28 10:26:37;;;;;;;4.75;2.90;;;;;;;;;;4986356;28;20187;-69
2023/07/28 10:29:13;;;;;;;7.28;3.30;;;;;;;;;;4990199;28;20724;-69
2023/07/28 10:31:49;;;;;;;5.80;3.00;;;;;;;;;;4989357;28;21349;-68
2023/07/28 10:34:15;;;;;;;5.95;3.42;;;;;;;;;;4988922;28;20368;-68
2023/07/28 10:36:43;;;;;;;8.57;3.45;;;;;;;;;;4990449;28;20191;-68
2023/07/28 10:39:13;;;;;;;9.25;3.17;;;;;;;;;;4990535;28;20211;-69
2023/07/28 10:41:38;;;;;;;6.95;4.00;;;;;;;;;;4990659;28;20291;-69
2023/07/28 10:44:03;;;;;;;9.10;4.18;;;;;;;;;;4989527;28;20568;-68
2023/07/28 10:46:29;;;;;;;8.03;3.93;;;;;;;;;;4991440;28;20192;-68
2023/07/28 10:48:54;;;;;;;7.28;3.70;;;;;;;;;;4990213;28;20698;-68
2023/07/28 10:51:21;;;;;;;4.63;3.33;;;;;;;;;;4989766;28;21085;-68
2023/07/28 10:53:49;;;;;;;6.50;3.47;;;;;;;;;;4972176;28;20468;-67
2023/07/28 10:56:14;;;;;;;9.18;3.90;;;;;;;;;;4973266;28;20560;-68
2023/07/28 10:58:39;;;;;;;8.13;3.20;;;;;;;;;;4989679;28;20256;-68
2023/07/28 11:01:05;;;;;;;6.38;3.13;;;;;;;;;;4971271;28;20483;-68
2023/07/28 11:03:30;;;;;;;7.38;2.95;;;;;;;;;;4989158;28;20176;-68
2023/07/28 11:05:56;;;;;;;6.38;3.03;;;;;;;;;;4989998;28;20175;-68
2023/07/28 11:08:22;;;;;;;8.38;3.30;;;;;;;;;;4989298;28;20180;-68
2023/07/28 11:10:47;;;;;;;7.05;3.50;;;;;;;;;;4989579;28;20215;-68
2023/07/28 11:13:13;;;;;;;6.85;4.68;;;;;;;;;;4988819;28;20183;-68
2023/07/28 11:15:38;;;;;;;7.25;3.97;;;;;;;;;;4989329;28;20215;-69
2023/07/28 11:18:04;;;;;;;7.25;4.32;;;;;;;;;;4988575;28;20205;-68
2023/07/28 11:20:30;;;;;;;7.13;3.70;;;;;;;;;;4988975;28;20210;-68
2023/07/28 11:22:56;;;;;;;6.00;3.70;;;;;;;;;;4989053;28;20210;-68
2023/07/28 11:25:22;;;;;;;6.25;3.58;;;;;;;;;;4989822;28;20187;-68
2023/07/28 11:27:47;;;;;;;4.75;3.60;;;;;;;;;;4988394;28;20190;-68
2023/07/28 11:30:13;;;;;;;7.30;4.38;;;;;;;;;;4988133;28;20223;-68
2023/07/28 11:32:38;;;;;;;6.53;3.90;;;;;;;;;;4971636;28;20852;-68
2023/07/28 11:35:05;;;;;;;4.40;2.25;;;;;;;;;;4988854;28;20209;-68
2023/07/28 11:37:31;;;;;;;6.18;3.33;;;;;;;;;;4984591;28;20180;-68
2023/07/28 11:39:56;;;;;;;4.65;3.10;;;;;;;;;;4987793;28;20344;-67
2023/07/28 11:42:22;;;;;;;4.80;2.88;;;;;;;;;;4988638;28;20180;-67
2023/07/28 11:44:47;;;;;;;10.80;3.50;;;;;;;;;;4989308;28;20183;-68
2023/07/28 11:47:17;;;;;;;6.95;3.30;;;;;;;;;;4987229;28;20765;-68
2023/07/28 11:49:48;;;;;;;4.07;2.90;;;;;;;;;;4988807;28;20215;-68
2023/07/28 11:52:15;;;;;;;7.65;3.17;;;;;;;;;;4971023;28;20281;-68
2023/07/28 11:54:41;;;;;;;9.57;4.43;;;;;;;;;;4989406;28;20323;-68
2023/07/28 11:57:08;;;;;;;5.35;2.90;;;;;;;;;;4989613;28;20226;-68
2023/07/28 11:59:34;;;;;;;4.38;2.72;;;;;;;;;;4970635;28;20214;-68
2023/07/28 12:02:00;;;;;;;5.97;3.42;;;;;;;;;;4988343;28;21061;-68
2023/07/28 12:04:27;;;;;;;4.57;3.88;;;;;;;;;;4970853;28;20192;-68
2023/07/28 12:07:06;;;;;;;5.90;3.50;;;;;;;;;;4989123;28;20182;-68
2023/07/28 12:09:51;;;;;;;8.18;4.65;;;;;;;;;;4981876;23;20218;-73
2023/07/28 12:12:18;;;;;;;4.72;4.25;;;;;;;;;;4968816;28;20204;-73
2023/07/28 12:14:46;;;;;;;7.82;4.72;;;;;;;;;;4967252;28;20450;-73
2023/07/28 12:17:11;;;;;;;7.03;5.40;;;;;;;;;;4970489;28;20180;-74
2023/07/28 12:19:40;;;;;;;12.35;5.28;;;;;;;;;;4971776;28;20221;-73
2023/07/28 12:22:05;;;;;;;6.60;5.53;;;;;;;;;;4988971;28;20199;-73
2023/07/28 12:24:30;;;;;;;8.63;6.27;;;;;;;;;;4988275;28;20569;-72
2023/07/28 12:26:56;;;;;;;9.77;5.87;;;;;;;;;;4989309;28;20902;-73
2023/07/28 12:29:21;;;;;;;11.93;7.78;;;;;;;;;;4988587;28;20941;-72
2023/07/28 12:31:46;;;;;;;9.38;5.78;;;;;;;;;;4987527;28;20195;-72
2023/07/28 12:34:12;;;;;;;7.30;5.95;;;;;;;;;;4987996;28;20208;-72
2023/07/28 12:36:37;;;;;;;10.63;6.22;;;;;;;;;;4987723;28;20192;-72
2023/07/28 12:39:03;;;;;;;11.43;5.60;;;;;;;;;;4987231;28;20206;-72
2023/07/28 12:41:28;;;;;;;8.95;5.43;;;;;;;;;;4987808;28;20206;-73
2023/07/28 12:43:53;;;;;;;8.93;4.70;;;;;;;;;;4988889;28;20696;-72
2023/07/28 12:46:18;;;;;;;9.53;4.90;;;;;;;;;;4990292;28;20427;-72
2023/07/28 12:48:44;;;;;;;10.90;4.83;;;;;;;;;;4978614;28;20429;-72
2023/07/28 12:51:09;;;;;;;6.57;4.25;;;;;;;;;;4976804;28;20458;-72
2023/07/28 12:53:34;;;;;;;5.15;3.97;;;;;;;;;;4976772;28;20359;-72
2023/07/28 12:55:59;;;;;;;4.87;3.07;;;;;;;;;;4973573;28;20196;-72
2023/07/28 12:58:25;;;;;;;5.03;3.23;;;;;;;;;;4972254;28;20436;-72
2023/07/28 13:00:51;;;;;;;5.68;2.33;;;;;;;;;;4975889;28;20456;-72
2023/07/28 13:03:16;;;;;;;6.05;2.92;;;;;;;;;;4973740;28;20180;-72
2023/07/28 13:05:46;;;;;;;2.63;2.30;;;;;;;;;;4974514;28;20218;-72
2023/07/28 13:08:12;;;;;;;4.00;2.88;;;;;;;;;;4973477;28;20189;-72
2023/07/28 13:10:37;;;;;;;3.72;2.80;;;;;;;;;;4974581;28;20620;-72
2023/07/28 13:13:02;;;;;;;4.95;2.80;;;;;;;;;;4974543;28;20595;-73
2023/07/28 13:15:28;;;;;;;5.50;3.40;;;;;;;;;;4976196;28;20211;-72
2023/07/28 13:17:53;;;;;;;6.77;3.63;;;;;;;;;;4972875;28;20491;-72
2023/07/28 13:20:18;;;;;;;7.60;3.35;;;;;;;;;;4973227;28;20440;-72
2023/07/28 13:22:43;;;;;;;3.80;3.28;;;;;;;;;;4973400;28;20183;-73
2023/07/28 13:25:09;;;;;;;5.05;4.18;;;;;;;;;;4976227;28;20190;-72
2023/07/28 13:27:34;;;;;;;7.82;4.20;;;;;;;;;;4971684;28;20202;-72
2023/07/28 13:29:59;;;;;;;7.43;4.50;;;;;;;;;;4972989;28;20689;-72
2023/07/28 13:32:25;;;;;;;4.63;3.43;;;;;;;;;;4975787;28;20961;-72
2023/07/28 13:34:52;;;;;;;4.82;3.30;;;;;;;;;;4975880;28;20492;-73
2023/07/28 13:37:17;;;;;;;4.55;3.10;;;;;;;;;;4974269;28;21539;-73
2023/07/28 13:39:43;;;;;;;7.07;3.33;;;;;;;;;;4973020;28;20206;-73
2023/07/28 13:42:08;;;;;;;6.50;4.32;;;;;;;;;;4974654;28;20186;-73
2023/07/28 13:44:33;;;;;;;4.03;3.63;;;;;;;;;;4976044;28;20182;-72
2023/07/28 13:46:59;;;;;;;7.87;4.57;;;;;;;;;;4976417;28;20195;-73
2023/07/28 13:49:25;;;;;;;5.07;4.22;;;;;;;;;;4973619;28;20421;-73
2023/07/28 13:51:50;;;;;;;6.85;4.57;;;;;;;;;;4974455;28;20198;-73
2023/07/28 13:54:15;;;;;;;10.38;4.95;;;;;;;;;;4974604;28;20206;-73
2023/07/28 13:56:40;;;;;;;7.03;4.90;;;;;;;;;;4975644;28;20987;-73
2023/07/28 13:59:05;;;;;;;7.20;5.63;;;;;;;;;;4977554;28;20420;-72
2023/07/28 14:01:31;;;;;;;11.10;6.63;;;;;;;;;;4979312;28;20207;-73
2023/07/28 14:03:57;;;;;;;9.32;6.43;;;;;;;;;;4973777;28;20319;-73
2023/07/28 14:06:22;;;;;;;11.77;6.80;;;;;;;;;;4973881;28;20560;-73
2023/07/28 14:08:47;;;;;;;9.17;6.60;;;;;;;;;;4974125;28;20997;-72
2023/07/28 14:11:12;;;;;;;10.90;6.88;;;;;;;;;;4972433;28;20461;-72
2023/07/28 14:13:38;;;;;;;8.77;6.77;;;;;;;;;;4978918;28;21561;-72
2023/07/28 14:16:03;;;;;;;11.57;7.80;;;;;;;;;;4974234;28;20428;-73
2023/07/28 14:18:29;;;;;;;11.73;8.15;;;;;;;;;;4974211;28;20221;-73
2023/07/28 14:20:54;;;;;;;11.82;8.00;;;;;;;;;;4972392;28;20336;-72
2023/07/28 14:23:23;;;;;;;11.73;7.80;;;;;;;;;;4973574;28;20210;-73